sensor_id;sensor_type;location;lat;lon;timestamp;pressure;altitude;pressure_sealevel;temperature;humidity
71565;BME280;59397;50.952;14.502;2022-09-23T00:02:51;976.86;;;1.08;100.00
71565;BME280;59397;50.952;14.502;2022-09-23T00:22:23;976.79;;;1.15;100.00
71565;BME280;59397;50.952;14.502;2022-09-23T00:41:55;976.62;;;1.56;100.00
71565;BME280;59397;50.952;14.502;2022-09-23T01:01:21;976.50;;;0.62;100.00
71565;BME280;59397;50.952;14.502;2022-09-23T01:20:54;976.36;;;0.62;100.00
71565;BME280;59397;50.952;14.502;2022-09-23T01:40:19;976.21;;;1.36;99.26
71565;BME280;59397;50.952;14.502;2022-09-23T01:59:47;976.11;;;0.48;100.00
71565;BME280;59397;50.952;14.502;2022-09-23T02:19:19;976.05;;;0.34;100.00
71565;BME280;59397;50.952;14.502;2022-09-23T02:38:50;976.01;;;0.71;100.00
71565;BME280;59397;50.952;14.502;2022-09-23T02:58:22;975.86;;;0.82;100.00
71565;BME280;59397;50.952;14.502;2022-09-23T03:17:42;975.73;;;0.31;100.00
71565;BME280;59397;50.952;14.502;2022-09-23T03:37:14;975.48;;;0.69;100.00
71565;BME280;59397;50.952;14.502;2022-09-23T03:56:43;975.43;;;0.66;100.00
71565;BME280;59397;50.952;14.502;2022-09-23T04:16:13;975.38;;;0.06;100.00
71565;BME280;59397;50.952;14.502;2022-09-23T04:35:48;975.29;;;0.61;100.00
71565;BME280;59397;50.952;14.502;2022-09-23T04:55:15;975.30;;;0.12;100.00
71565;BME280;59397;50.952;14.502;2022-09-23T05:14:47;975.24;;;0.64;100.00
71565;BME280;59397;50.952;14.502;2022-09-23T05:34:21;975.28;;;0.81;100.00
71565;BME280;59397;50.952;14.502;2022-09-23T05:53:54;975.18;;;1.36;100.00
71565;BME280;59397;50.952;14.502;2022-09-23T06:13:26;975.37;;;1.63;100.00
71565;BME280;59397;50.952;14.502;2022-09-23T06:33:00;975.22;;;2.81;100.00
71565;BME280;59397;50.952;14.502;2022-09-23T06:52:36;975.26;;;4.02;100.00
71565;BME280;59397;50.952;14.502;2022-09-23T07:12:15;975.20;;;5.81;100.00
71565;BME280;59397;50.952;14.502;2022-09-23T07:31:44;975.16;;;7.26;100.00
71565;BME280;59397;50.952;14.502;2022-09-23T07:51:20;975.21;;;8.15;100.00
71565;BME280;59397;50.952;14.502;2022-09-23T08:10:58;975.16;;;9.42;89.71
71565;BME280;59397;50.952;14.502;2022-09-23T08:30:29;975.18;;;10.19;86.44
71565;BME280;59397;50.952;14.502;2022-09-23T08:50:03;975.16;;;10.68;81.57
71565;BME280;59397;50.952;14.502;2022-09-23T09:09:36;975.04;;;11.13;82.15
71565;BME280;59397;50.952;14.502;2022-09-23T09:29:08;975.06;;;11.01;77.44
71565;BME280;59397;50.952;14.502;2022-09-23T09:48:45;974.74;;;11.34;72.15
71565;BME280;59397;50.952;14.502;2022-09-23T10:08:20;974.73;;;12.02;72.63
71565;BME280;59397;50.952;14.502;2022-09-23T10:27:46;974.54;;;11.98;68.48
71565;BME280;59397;50.952;14.502;2022-09-23T10:47:21;974.48;;;12.61;70.10
71565;BME280;59397;50.952;14.502;2022-09-23T11:06:58;974.24;;;12.66;63.77
71565;BME280;59397;50.952;14.502;2022-09-23T11:26:26;974.09;;;12.66;66.83
71565;BME280;59397;50.952;14.502;2022-09-23T11:45:56;973.75;;;12.41;62.61
71565;BME280;59397;50.952;14.502;2022-09-23T12:05:29;973.56;;;12.35;64.57
71565;BME280;59397;50.952;14.502;2022-09-23T12:25:08;973.40;;;12.72;59.81
71565;BME280;59397;50.952;14.502;2022-09-23T12:44:37;973.35;;;12.34;64.53
71565;BME280;59397;50.952;14.502;2022-09-23T13:23:37;972.88;;;12.42;65.70
71565;BME280;59397;50.952;14.502;2022-09-23T13:43:11;972.69;;;12.60;64.40
71565;BME280;59397;50.952;14.502;2022-09-23T14:02:42;972.57;;;12.62;61.08
71565;BME280;59397;50.952;14.502;2022-09-23T14:22:20;972.39;;;12.85;59.30
71565;BME280;59397;50.952;14.502;2022-09-23T14:41:47;972.30;;;12.22;61.46
71565;BME280;59397;50.952;14.502;2022-09-23T15:20:51;972.05;;;12.10;68.14
71565;BME280;59397;50.952;14.502;2022-09-23T15:40:21;972.02;;;11.72;71.66
71565;BME280;59397;50.952;14.502;2022-09-23T15:59:51;971.92;;;11.43;76.28
71565;BME280;59397;50.952;14.502;2022-09-23T16:19:21;971.79;;;10.74;81.87
71565;BME280;59397;50.952;14.502;2022-09-23T16:38:50;971.70;;;9.30;85.49
71565;BME280;59397;50.952;14.502;2022-09-23T16:58:18;971.72;;;8.49;94.14
71565;BME280;59397;50.952;14.502;2022-09-23T17:17:46;971.67;;;7.46;98.69
71565;BME280;59397;50.952;14.502;2022-09-23T17:37:16;971.72;;;6.57;100.00
71565;BME280;59397;50.952;14.502;2022-09-23T17:56:47;971.71;;;5.89;100.00
71565;BME280;59397;50.952;14.502;2022-09-23T18:16:19;971.68;;;5.71;100.00
71565;BME280;59397;50.952;14.502;2022-09-23T18:35:48;971.70;;;5.41;100.00
71565;BME280;59397;50.952;14.502;2022-09-23T18:55:19;971.65;;;5.12;100.00
71565;BME280;59397;50.952;14.502;2022-09-23T19:14:49;971.67;;;5.06;100.00
71565;BME280;59397;50.952;14.502;2022-09-23T19:34:21;971.67;;;4.90;100.00
71565;BME280;59397;50.952;14.502;2022-09-23T19:53:51;971.64;;;4.64;100.00
71565;BME280;59397;50.952;14.502;2022-09-23T20:13:17;971.59;;;4.20;100.00
71565;BME280;59397;50.952;14.502;2022-09-23T20:32:49;971.36;;;4.66;100.00
71565;BME280;59397;50.952;14.502;2022-09-23T20:52:19;971.39;;;4.24;100.00
71565;BME280;59397;50.952;14.502;2022-09-23T21:11:51;971.30;;;4.54;100.00
71565;BME280;59397;50.952;14.502;2022-09-23T21:31:21;971.25;;;4.66;100.00
71565;BME280;59397;50.952;14.502;2022-09-23T21:50:53;971.22;;;4.51;100.00
71565;BME280;59397;50.952;14.502;2022-09-23T22:10:21;970.95;;;4.56;100.00
71565;BME280;59397;50.952;14.502;2022-09-23T22:29:51;971.07;;;4.16;100.00
71565;BME280;59397;50.952;14.502;2022-09-23T22:49:23;970.85;;;3.99;100.00
71565;BME280;59397;50.952;14.502;2022-09-23T23:08:52;970.85;;;4.36;100.00
71565;BME280;59397;50.952;14.502;2022-09-23T23:28:24;970.62;;;4.26;100.00
71565;BME280;59397;50.952;14.502;2022-09-23T23:47:50;970.52;;;4.62;100.00
